Kimball, Minnesota
Current Conditions -  °F | °C
As of 2:33 AM on Friday 28 Nov 2014 (Local Time) from KLJF Reporting Station
Overcast Overcast  
Wind Chill: -8°   Ceiling: 9000
Heat Index:   Visibility: 10mi
Dew Point:   Wind: 14mph
Humidity: 92%   Direction: 130°SE
Pressure: 30.08"   Gusts: NA
Location:  45.31°N, 94.3°W
Report Text: KLJF 280833Z AUTO 13012KT 10SM OVC090 M13/M14 A3008 RMK AO2
Loading
Personal Weather Stations






























Interactive Weather Map New forecast layout! Learn more

10-Day Weather Forecast

Advertisements
Track Severe Weather on mobile